Time;durP1;ratioP1;P1;durP2;ratioP2;P2;SDS_P1;SDS_P2;PMS_P1;PMS_P2;Temp;Humidity;BMP_temperature;BMP_pressure;BME280_temperature;BME280_humidity;BME280_pressure;Samples;Min_cycle;Max_cycle;Signal;HPM_P1;HPM_P2
2022/07/11 00:02:08;;;;;;;5.18;4.18;;;;;;;;;;4975606;28;20417;-66
2022/07/11 00:04:34;;;;;;;7.32;4.57;;;;;;;;;;4975395;28;20039;-68
2022/07/11 00:07:01;;;;;;;8.45;4.90;;;;;;;;;;4975719;28;20529;-69
2022/07/11 00:09:28;;;;;;;6.32;5.30;;;;;;;;;;4975486;28;20022;-67
2022/07/11 00:11:54;;;;;;;5.97;5.15;;;;;;;;;;4990596;28;20049;-72
2022/07/11 00:14:21;;;;;;;6.78;5.28;;;;;;;;;;4975533;28;20038;-67
2022/07/11 00:16:52;;;;;;;8.45;5.18;;;;;;;;;;4974420;28;20077;-66
2022/07/11 00:19:19;;;;;;;9.25;5.00;;;;;;;;;;4975367;28;20105;-69
2022/07/11 00:21:49;;;;;;;5.93;5.03;;;;;;;;;;4975523;28;20050;-67
2022/07/11 00:24:17;;;;;;;5.28;4.78;;;;;;;;;;4975186;28;20027;-67
2022/07/11 00:26:43;;;;;;;5.95;4.90;;;;;;;;;;4975470;28;20033;-67
2022/07/11 00:29:09;;;;;;;6.50;4.95;;;;;;;;;;4975528;28;20031;-67
2022/07/11 00:31:35;;;;;;;8.95;5.40;;;;;;;;;;4975143;28;20041;-67
2022/07/11 00:34:01;;;;;;;6.97;4.82;;;;;;;;;;4974573;28;20042;-67
2022/07/11 00:36:26;;;;;;;5.93;4.50;;;;;;;;;;4974766;28;20118;-67
2022/07/11 00:38:53;;;;;;;5.80;4.80;;;;;;;;;;4974741;28;20043;-66
2022/07/11 00:41:19;;;;;;;5.97;4.18;;;;;;;;;;4974938;28;20513;-66
2022/07/11 00:43:52;;;;;;;5.70;3.80;;;;;;;;;;4974932;28;20038;-68
2022/07/11 00:46:19;;;;;;;5.38;4.18;;;;;;;;;;4970511;28;20039;-67
2022/07/11 00:48:45;;;;;;;7.57;3.85;;;;;;;;;;4955327;28;20471;-66
2022/07/11 00:51:11;;;;;;;10.18;4.63;;;;;;;;;;4955055;28;20508;-69
2022/07/11 00:53:39;;;;;;;5.38;4.15;;;;;;;;;;4955617;28;20035;-68
2022/07/11 00:56:06;;;;;;;4.95;3.90;;;;;;;;;;4954870;28;20483;-67
2022/07/11 00:58:32;;;;;;;7.25;4.25;;;;;;;;;;4955021;28;20102;-66
2022/07/11 01:00:58;;;;;;;4.60;4.10;;;;;;;;;;4955329;28;20038;-66
2022/07/11 01:03:24;;;;;;;6.85;3.90;;;;;;;;;;4955337;28;20031;-66
2022/07/11 01:05:50;;;;;;;7.53;3.80;;;;;;;;;;4955634;28;20027;-67
2022/07/11 01:08:16;;;;;;;5.38;3.10;;;;;;;;;;4955540;28;20023;-67
2022/07/11 01:10:42;;;;;;;5.40;3.40;;;;;;;;;;4954926;28;20113;-67
2022/07/11 01:13:08;;;;;;;4.13;2.88;;;;;;;;;;4955028;28;20459;-67
2022/07/11 01:15:35;;;;;;;5.10;3.30;;;;;;;;;;4955153;28;20134;-68
2022/07/11 01:18:04;;;;;;;4.88;2.75;;;;;;;;;;4953764;28;20135;-66
2022/07/11 01:20:30;;;;;;;2.92;1.73;;;;;;;;;;4953491;28;20035;-66
2022/07/11 01:23:06;;;;;;;3.03;1.50;;;;;;;;;;4954998;28;20398;-65
2022/07/11 01:25:34;;;;;;;3.47;1.75;;;;;;;;;;4954860;28;20035;-66
2022/07/11 01:28:06;;;;;;;6.28;2.25;;;;;;;;;;4954980;28;20031;-66
2022/07/11 01:30:33;;;;;;;3.83;1.40;;;;;;;;;;4954758;28;20063;-66
2022/07/11 01:32:59;;;;;;;2.00;1.30;;;;;;;;;;4954550;28;20051;-66
2022/07/11 01:35:26;;;;;;;2.17;1.30;;;;;;;;;;4954879;28;20028;-68
2022/07/11 01:37:52;;;;;;;5.00;1.20;;;;;;;;;;4954974;28;20078;-66
2022/07/11 01:40:18;;;;;;;2.33;1.30;;;;;;;;;;4954546;28;20059;-66
2022/07/11 01:42:44;;;;;;;3.80;1.40;;;;;;;;;;4953493;28;20093;-66
2022/07/11 01:45:11;;;;;;;2.40;1.35;;;;;;;;;;4954233;28;20039;-66
2022/07/11 01:47:37;;;;;;;2.47;1.20;;;;;;;;;;4954606;28;20054;-66
2022/07/11 01:50:04;;;;;;;2.80;1.30;;;;;;;;;;4954552;28;20398;-66
2022/07/11 01:52:30;;;;;;;1.80;1.20;;;;;;;;;;4954242;28;20110;-67
2022/07/11 01:54:56;;;;;;;1.60;1.17;;;;;;;;;;4960794;28;20433;-66
2022/07/11 01:57:22;;;;;;;3.92;1.90;;;;;;;;;;4963412;28;20051;-67
2022/07/11 01:59:48;;;;;;;1.83;1.40;;;;;;;;;;4961990;28;20031;-67
2022/07/11 02:02:14;;;;;;;3.28;1.40;;;;;;;;;;4958245;28;20031;-67
2022/07/11 02:04:40;;;;;;;2.15;1.30;;;;;;;;;;4954204;29;20050;-67
2022/07/11 02:07:06;;;;;;;2.00;1.60;;;;;;;;;;4953663;28;20031;-67
2022/07/11 02:09:32;;;;;;;5.43;1.60;;;;;;;;;;4953967;29;20031;-66
2022/07/11 02:11:58;;;;;;;4.70;1.60;;;;;;;;;;4954199;29;20489;-66
2022/07/11 02:14:24;;;;;;;2.13;1.67;;;;;;;;;;4953821;28;20039;-67
2022/07/11 02:16:50;;;;;;;4.45;1.77;;;;;;;;;;4953891;28;20528;-67
2022/07/11 02:19:15;;;;;;;2.67;1.73;;;;;;;;;;4953651;28;20045;-67
2022/07/11 02:21:42;;;;;;;4.68;1.85;;;;;;;;;;4952334;29;20031;-67
2022/07/11 02:24:08;;;;;;;4.95;2.20;;;;;;;;;;4953804;28;20031;-66
2022/07/11 02:26:35;;;;;;;3.28;1.75;;;;;;;;;;4954089;29;20059;-67
2022/07/11 02:29:01;;;;;;;4.45;1.80;;;;;;;;;;4953893;29;20478;-67
2022/07/11 02:31:27;;;;;;;3.45;1.60;;;;;;;;;;4961339;28;20033;-66
2022/07/11 02:33:53;;;;;;;4.10;1.73;;;;;;;;;;4990136;28;20034;-67
2022/07/11 02:36:20;;;;;;;2.22;1.30;;;;;;;;;;4990532;28;20037;-66
2022/07/11 02:38:46;;;;;;;2.63;1.23;;;;;;;;;;4990253;28;20502;-67
2022/07/11 02:41:12;;;;;;;1.95;1.40;;;;;;;;;;4990205;28;20045;-69
2022/07/11 02:43:38;;;;;;;2.20;1.40;;;;;;;;;;4990779;28;20066;-66
2022/07/11 02:46:05;;;;;;;2.25;1.40;;;;;;;;;;4990604;28;20072;-66
2022/07/11 02:48:31;;;;;;;2.83;1.50;;;;;;;;;;4991205;28;20121;-65
2022/07/11 02:50:57;;;;;;;2.05;1.33;;;;;;;;;;4990450;28;20105;-69
2022/07/11 02:53:22;;;;;;;3.17;1.20;;;;;;;;;;4990916;28;20068;-67
2022/07/11 02:55:48;;;;;;;2.38;1.40;;;;;;;;;;4989686;28;20030;-72
2022/07/11 02:58:14;;;;;;;2.33;1.30;;;;;;;;;;4990650;28;20485;-66
2022/07/11 03:00:40;;;;;;;1.88;1.15;;;;;;;;;;4991082;28;20057;-66
2022/07/11 03:03:06;;;;;;;1.67;1.13;;;;;;;;;;4990536;28;20043;-65
2022/07/11 03:05:32;;;;;;;2.30;1.20;;;;;;;;;;4994176;28;20022;-66
2022/07/11 03:07:58;;;;;;;3.45;1.40;;;;;;;;;;4988683;28;20030;-66
2022/07/11 03:10:24;;;;;;;1.85;1.33;;;;;;;;;;4989655;28;20042;-66
2022/07/11 03:12:50;;;;;;;4.47;1.20;;;;;;;;;;4990755;28;20100;-66
2022/07/11 03:15:16;;;;;;;2.45;1.20;;;;;;;;;;4990697;28;20130;-68
2022/07/11 03:17:42;;;;;;;2.53;1.40;;;;;;;;;;4989645;28;20108;-66
2022/07/11 03:20:09;;;;;;;2.47;1.33;;;;;;;;;;4993611;28;20045;-66
2022/07/11 03:22:35;;;;;;;1.60;1.15;;;;;;;;;;4993982;28;20690;-65
2022/07/11 03:25:05;;;;;;;3.05;1.42;;;;;;;;;;4993730;28;20030;-66
2022/07/11 03:27:32;;;;;;;2.88;1.35;;;;;;;;;;4994107;28;20436;-66
2022/07/11 03:29:57;;;;;;;3.50;1.20;;;;;;;;;;4993248;28;20053;-65
2022/07/11 03:32:23;;;;;;;2.10;1.35;;;;;;;;;;4993195;28;20831;-65
2022/07/11 03:37:34;;;;;;;2.65;1.77;;;;;;;;;;4993015;28;20485;-68
2022/07/11 03:39:59;;;;;;;2.85;1.50;;;;;;;;;;4993823;28;20138;-65
2022/07/11 03:42:26;;;;;;;2.42;1.33;;;;;;;;;;4993810;28;20049;-67
2022/07/11 03:44:52;;;;;;;2.50;1.40;;;;;;;;;;4992187;28;20031;-68
2022/07/11 03:47:19;;;;;;;2.67;1.25;;;;;;;;;;4993744;28;20078;-67
2022/07/11 03:49:46;;;;;;;7.60;1.90;;;;;;;;;;4993694;28;20053;-67
2022/07/11 03:52:12;;;;;;;4.07;1.50;;;;;;;;;;4993379;28;20173;-67
2022/07/11 03:54:38;;;;;;;4.15;1.70;;;;;;;;;;4993226;28;20030;-67
2022/07/11 03:57:05;;;;;;;3.67;1.40;;;;;;;;;;4992683;28;20065;-66
2022/07/11 03:59:31;;;;;;;3.75;1.50;;;;;;;;;;4993083;28;20046;-65
2022/07/11 04:01:57;;;;;;;3.33;1.60;;;;;;;;;;4987392;28;20752;-68
2022/07/11 04:04:22;;;;;;;7.80;1.95;;;;;;;;;;4993025;28;20117;-67
2022/07/11 04:06:48;;;;;;;3.90;1.77;;;;;;;;;;4993432;28;20195;-66
2022/07/11 04:09:14;;;;;;;2.28;1.42;;;;;;;;;;4991538;28;20417;-66
2022/07/11 04:11:40;;;;;;;4.18;1.95;;;;;;;;;;4992952;28;20367;-68
2022/07/11 04:14:06;;;;;;;3.17;1.67;;;;;;;;;;4993109;28;20103;-71
2022/07/11 04:16:32;;;;;;;3.45;1.55;;;;;;;;;;4988199;28;20040;-69
2022/07/11 04:18:57;;;;;;;8.50;2.00;;;;;;;;;;4992847;28;20521;-68
2022/07/11 04:21:23;;;;;;;3.20;1.60;;;;;;;;;;4992176;28;20563;-66
2022/07/11 04:23:49;;;;;;;6.40;1.90;;;;;;;;;;4990725;28;20029;-68
2022/07/11 04:26:15;;;;;;;3.60;1.60;;;;;;;;;;4984077;28;20138;-68
2022/07/11 04:28:41;;;;;;;4.43;1.80;;;;;;;;;;4992368;28;20112;-68
2022/07/11 04:31:07;;;;;;;3.42;1.85;;;;;;;;;;4992957;28;20030;-69
2022/07/11 04:33:33;;;;;;;3.13;1.70;;;;;;;;;;4977875;28;20030;-68
2022/07/11 04:35:59;;;;;;;5.03;1.80;;;;;;;;;;4964277;28;20445;-68
2022/07/11 04:38:25;;;;;;;4.20;2.00;;;;;;;;;;4988742;28;20478;-68
2022/07/11 04:40:51;;;;;;;5.88;2.10;;;;;;;;;;4990661;28;20038;-68
2022/07/11 04:43:16;;;;;;;2.50;1.67;;;;;;;;;;4991983;28;20034;-67
2022/07/11 04:45:42;;;;;;;3.60;1.70;;;;;;;;;;4990309;28;20050;-68
2022/07/11 04:48:08;;;;;;;3.13;1.70;;;;;;;;;;4992134;28;20034;-66
2022/07/11 04:50:34;;;;;;;5.13;2.00;;;;;;;;;;4983134;28;20042;-67
2022/07/11 04:53:00;;;;;;;5.40;1.80;;;;;;;;;;4971657;28;20019;-68
2022/07/11 04:55:26;;;;;;;3.05;1.90;;;;;;;;;;4974374;28;20066;-67
2022/07/11 04:57:52;;;;;;;3.30;1.92;;;;;;;;;;4973917;28;20068;-68
2022/07/11 05:00:19;;;;;;;5.18;2.63;;;;;;;;;;4971766;28;20070;-68
2022/07/11 05:02:45;;;;;;;3.15;2.08;;;;;;;;;;4964663;28;20117;-67
2022/07/11 05:05:11;;;;;;;5.18;2.40;;;;;;;;;;4971534;28;20061;-66
2022/07/11 05:07:37;;;;;;;4.13;1.90;;;;;;;;;;4972869;28;20038;-66
2022/07/11 05:10:04;;;;;;;7.72;2.00;;;;;;;;;;4973392;28;20437;-66
2022/07/11 05:12:30;;;;;;;5.15;2.03;;;;;;;;;;4972410;28;20026;-67
2022/07/11 05:14:58;;;;;;;6.35;2.38;;;;;;;;;;4975071;28;20031;-66
2022/07/11 05:17:27;;;;;;;6.97;2.42;;;;;;;;;;4973371;28;20023;-66
2022/07/11 05:19:53;;;;;;;5.63;2.10;;;;;;;;;;4957105;28;20058;-67
2022/07/11 05:22:19;;;;;;;3.95;1.95;;;;;;;;;;4955218;28;20122;-65
2022/07/11 05:24:45;;;;;;;4.75;1.90;;;;;;;;;;4955248;28;20046;-66
2022/07/11 05:27:11;;;;;;;4.97;2.35;;;;;;;;;;4956477;28;20383;-66
2022/07/11 05:29:37;;;;;;;4.70;2.42;;;;;;;;;;4955153;28;20110;-67
2022/07/11 05:32:03;;;;;;;6.40;1.50;;;;;;;;;;4954649;28;20031;-67
2022/07/11 05:34:29;;;;;;;5.10;1.90;;;;;;;;;;4954911;28;20035;-67
2022/07/11 05:36:55;;;;;;;7.82;1.73;;;;;;;;;;4954955;28;20537;-67
2022/07/11 05:39:20;;;;;;;3.95;1.90;;;;;;;;;;4954973;28;20086;-66
2022/07/11 05:41:46;;;;;;;5.10;1.88;;;;;;;;;;4954365;28;20078;-67
2022/07/11 05:44:12;;;;;;;7.07;1.80;;;;;;;;;;4954551;28;20110;-67
2022/07/11 05:46:39;;;;;;;2.40;1.60;;;;;;;;;;4954985;28;20038;-66
2022/07/11 05:49:08;;;;;;;3.58;1.52;;;;;;;;;;4954597;28;20027;-66
2022/07/11 05:51:34;;;;;;;2.50;1.60;;;;;;;;;;4954824;28;20031;-69
2022/07/11 05:54:01;;;;;;;7.90;1.88;;;;;;;;;;4955002;28;20043;-68
2022/07/11 05:56:27;;;;;;;3.10;1.52;;;;;;;;;;4954454;28;20078;-66
2022/07/11 05:58:53;;;;;;;4.47;1.50;;;;;;;;;;4954630;28;20070;-66
2022/07/11 06:01:20;;;;;;;9.38;1.90;;;;;;;;;;4954521;28;20549;-68
2022/07/11 06:03:46;;;;;;;6.85;1.60;;;;;;;;;;4954708;28;20034;-66
2022/07/11 06:06:12;;;;;;;5.53;1.75;;;;;;;;;;4954727;28;20031;-71
2022/07/11 06:08:40;;;;;;;6.72;1.70;;;;;;;;;;4953907;28;20035;-71
2022/07/11 06:11:07;;;;;;;3.05;1.58;;;;;;;;;;4954179;28;20027;-74
2022/07/11 06:13:33;;;;;;;6.15;1.83;;;;;;;;;;4954500;28;20035;-71
2022/07/11 06:15:59;;;;;;;8.52;1.70;;;;;;;;;;4954851;28;20362;-73
2022/07/11 06:18:25;;;;;;;6.93;1.67;;;;;;;;;;4937314;28;20031;-71
2022/07/11 06:20:51;;;;;;;4.57;1.50;;;;;;;;;;4954233;28;20035;-73
2022/07/11 06:23:17;;;;;;;2.17;1.42;;;;;;;;;;4968915;28;20101;-71
2022/07/11 06:25:43;;;;;;;2.10;1.27;;;;;;;;;;4972493;28;20023;-70
2022/07/11 06:28:09;;;;;;;4.05;1.35;;;;;;;;;;4973496;28;20042;-70
2022/07/11 06:30:36;;;;;;;6.88;1.40;;;;;;;;;;4972074;28;20533;-70
2022/07/11 06:33:03;;;;;;;4.03;1.42;;;;;;;;;;4973114;28;20093;-70
2022/07/11 06:35:30;;;;;;;2.95;1.48;;;;;;;;;;4959366;28;20039;-70
2022/07/11 06:37:56;;;;;;;4.88;1.80;;;;;;;;;;4954194;28;20420;-70
2022/07/11 06:40:23;;;;;;;4.65;1.73;;;;;;;;;;4954114;28;20050;-70
2022/07/11 06:42:49;;;;;;;3.80;1.60;;;;;;;;;;4954543;28;20043;-69
2022/07/11 06:45:15;;;;;;;4.60;1.60;;;;;;;;;;4954348;28;20019;-70
2022/07/11 06:47:42;;;;;;;8.40;1.80;;;;;;;;;;4962188;28;20035;-70
2022/07/11 06:50:08;;;;;;;5.18;2.05;;;;;;;;;;4972952;28;20478;-70
2022/07/11 06:52:34;;;;;;;3.55;1.50;;;;;;;;;;4973228;28;20057;-70
2022/07/11 06:55:00;;;;;;;6.22;1.65;;;;;;;;;;4976680;28;20401;-69
2022/07/11 06:57:26;;;;;;;2.40;2.08;;;;;;;;;;4975768;28;20046;-70
2022/07/11 06:59:53;;;;;;;3.70;1.80;;;;;;;;;;4971414;28;20478;-70
2022/07/11 07:02:19;;;;;;;2.95;1.42;;;;;;;;;;4957933;28;20042;-71
2022/07/11 07:04:45;;;;;;;5.68;1.60;;;;;;;;;;4957918;28;20450;-69
2022/07/11 07:07:11;;;;;;;7.22;3.78;;;;;;;;;;4957619;28;20035;-69
2022/07/11 07:09:36;;;;;;;4.25;1.58;;;;;;;;;;4957587;28;20023;-72
2022/07/11 07:12:02;;;;;;;2.17;1.40;;;;;;;;;;4957175;28;20043;-70
2022/07/11 07:14:28;;;;;;;5.85;1.77;;;;;;;;;;4957312;28;20054;-70
2022/07/11 07:16:54;;;;;;;5.40;1.80;;;;;;;;;;4957839;28;20534;-70
2022/07/11 07:19:20;;;;;;;2.90;1.40;;;;;;;;;;4957405;28;20106;-72
2022/07/11 07:21:47;;;;;;;3.17;1.67;;;;;;;;;;4959973;28;20039;-70
2022/07/11 07:24:13;;;;;;;2.10;1.50;;;;;;;;;;4970390;28;20037;-70
2022/07/11 07:26:39;;;;;;;4.50;2.30;;;;;;;;;;4960706;28;20394;-71
2022/07/11 07:29:05;;;;;;;2.00;1.58;;;;;;;;;;4957543;28;20090;-71
2022/07/11 07:31:30;;;;;;;4.50;1.30;;;;;;;;;;4957688;28;20531;-71
2022/07/11 07:33:57;;;;;;;5.45;1.80;;;;;;;;;;4957341;28;20035;-73
2022/07/11 07:36:23;;;;;;;6.38;1.60;;;;;;;;;;4963523;28;20079;-72
2022/07/11 07:38:49;;;;;;;2.97;2.22;;;;;;;;;;4975543;28;20606;-70
2022/07/11 07:41:16;;;;;;;2.90;1.60;;;;;;;;;;4974760;28;20042;-71
2022/07/11 07:43:43;;;;;;;3.38;1.63;;;;;;;;;;4975020;28;20506;-70
2022/07/11 07:46:10;;;;;;;3.47;1.60;;;;;;;;;;4975035;28;20047;-71
2022/07/11 07:48:37;;;;;;;2.55;1.60;;;;;;;;;;4976141;28;20375;-70
2022/07/11 07:51:04;;;;;;;2.92;1.45;;;;;;;;;;4967244;28;20232;-70
2022/07/11 07:53:29;;;;;;;3.17;1.80;;;;;;;;;;4955819;28;20387;-71
2022/07/11 07:55:55;;;;;;;4.20;1.45;;;;;;;;;;4956960;28;20031;-70
2022/07/11 07:58:21;;;;;;;3.05;1.45;;;;;;;;;;4957064;28;20061;-70
2022/07/11 08:03:32;;;;;;;2.45;1.40;;;;;;;;;;4955839;28;20502;-70
2022/07/11 08:05:58;;;;;;;3.15;1.40;;;;;;;;;;4955927;28;20027;-70
2022/07/11 08:08:23;;;;;;;3.83;1.63;;;;;;;;;;4974797;28;20034;-71
2022/07/11 08:10:51;;;;;;;2.88;1.38;;;;;;;;;;4974923;28;20026;-72
2022/07/11 08:13:20;;;;;;;4.60;1.63;;;;;;;;;;4995027;28;20041;-72
2022/07/11 08:15:47;;;;;;;1.60;1.15;;;;;;;;;;4977861;28;20041;-71
2022/07/11 08:18:13;;;;;;;1.60;1.30;;;;;;;;;;4981105;28;20466;-72
2022/07/11 08:20:39;;;;;;;1.70;1.30;;;;;;;;;;4974464;28;20034;-72
2022/07/11 08:23:05;;;;;;;4.05;1.50;;;;;;;;;;4975095;28;20474;-69
2022/07/11 08:25:31;;;;;;;3.30;1.50;;;;;;;;;;4975423;28;20085;-71
2022/07/11 08:27:57;;;;;;;1.70;1.00;;;;;;;;;;4975264;28;20030;-70
2022/07/11 08:30:22;;;;;;;4.85;1.30;;;;;;;;;;4956750;28;20069;-69
2022/07/11 08:32:48;;;;;;;3.28;1.40;;;;;;;;;;4972283;28;20093;-69
2022/07/11 08:35:15;;;;;;;4.50;1.73;;;;;;;;;;4956165;28;20214;-71
2022/07/11 08:37:41;;;;;;;1.80;1.20;;;;;;;;;;4955417;28;20479;-71
2022/07/11 08:40:08;;;;;;;1.30;1.10;;;;;;;;;;4956194;28;20027;-70
2022/07/11 08:42:44;;;;;;;3.58;1.30;;;;;;;;;;4956349;28;20103;-70
2022/07/11 08:45:12;;;;;;;3.88;1.15;;;;;;;;;;4956369;28;20039;-70
2022/07/11 08:47:39;;;;;;;2.88;1.55;;;;;;;;;;4972227;28;20439;-70
2022/07/11 08:50:05;;;;;;;3.83;1.23;;;;;;;;;;4955765;29;20039;-70
2022/07/11 08:52:32;;;;;;;1.42;1.17;;;;;;;;;;4973069;28;20466;-70
2022/07/11 08:54:58;;;;;;;4.30;1.63;;;;;;;;;;4974935;28;20066;-70
2022/07/11 08:57:24;;;;;;;2.42;1.50;;;;;;;;;;4975334;28;20070;-70
2022/07/11 08:59:55;;;;;;;4.07;1.40;;;;;;;;;;4975618;28;20038;-71
2022/07/11 09:02:23;;;;;;;1.65;1.20;;;;;;;;;;4975773;28;20113;-70
2022/07/11 09:04:49;;;;;;;2.20;1.30;;;;;;;;;;4975410;28;20354;-71
2022/07/11 09:07:15;;;;;;;4.18;1.17;;;;;;;;;;4975412;28;20038;-72
2022/07/11 09:09:41;;;;;;;2.42;1.30;;;;;;;;;;4975465;28;20060;-72
2022/07/11 09:12:16;;;;;;;2.45;1.20;;;;;;;;;;4975325;28;20138;-71
2022/07/11 09:14:47;;;;;;;3.30;1.42;;;;;;;;;;4975378;28;20073;-71
2022/07/11 09:17:14;;;;;;;5.10;1.40;;;;;;;;;;4975242;28;20062;-74
2022/07/11 09:19:39;;;;;;;3.33;1.48;;;;;;;;;;4971850;28;20158;-71
2022/07/11 09:25:25;;;;;;;2.75;1.60;;;;;;;;;;4971504;28;20035;-70
2022/07/11 09:28:05;;;;;;;1.30;0.90;;;;;;;;;;4978140;28;20030;-71
2022/07/11 09:30:32;;;;;;;1.50;1.20;;;;;;;;;;4993977;28;20034;-71
2022/07/11 09:33:00;;;;;;;3.92;1.40;;;;;;;;;;4983358;28;20026;-71
2022/07/11 09:35:46;;;;;;;2.40;1.75;;;;;;;;;;4964289;28;20087;-71
2022/07/11 09:38:15;;;;;;;4.28;1.40;;;;;;;;;;4953291;28;20061;-72
2022/07/11 09:40:46;;;;;;;2.42;1.58;;;;;;;;;;4954151;28;20454;-73
2022/07/11 09:43:13;;;;;;;3.22;1.45;;;;;;;;;;4954411;28;20101;-74
2022/07/11 09:45:40;;;;;;;2.28;1.25;;;;;;;;;;4966886;28;20026;-72
2022/07/11 09:48:13;;;;;;;2.33;1.50;;;;;;;;;;4968991;28;20028;-73
2022/07/11 09:50:41;;;;;;;4.47;1.60;;;;;;;;;;4969559;28;20045;-72
2022/07/11 09:53:10;;;;;;;2.80;1.40;;;;;;;;;;4973702;28;20057;-73
2022/07/11 09:55:38;;;;;;;3.38;1.50;;;;;;;;;;4973563;28;20031;-72
2022/07/11 09:58:05;;;;;;;4.00;1.63;;;;;;;;;;4973242;28;20047;-74
2022/07/11 10:00:33;;;;;;;1.83;1.40;;;;;;;;;;4972974;28;20129;-75
2022/07/11 10:03:00;;;;;;;6.35;1.60;;;;;;;;;;4973420;28;20086;-72
2022/07/11 10:05:27;;;;;;;2.97;1.33;;;;;;;;;;4973603;28;20076;-72
2022/07/11 10:07:53;;;;;;;2.13;1.40;;;;;;;;;;4973861;28;20374;-73
2022/07/11 10:10:19;;;;;;;2.13;1.20;;;;;;;;;;4969264;28;20036;-75
2022/07/11 10:12:48;;;;;;;2.28;1.48;;;;;;;;;;4969790;28;20026;-74
2022/07/11 10:15:22;;;;;;;4.90;1.60;;;;;;;;;;4972112;28;20390;-74
2022/07/11 10:18:03;;;;;;;1.70;1.30;;;;;;;;;;4958988;28;20035;-74
2022/07/11 10:20:47;;;;;;;4.20;2.08;;;;;;;;;;4952739;28;20031;-75
2022/07/11 10:23:28;;;;;;;3.92;1.50;;;;;;;;;;4953428;28;20157;-74
2022/07/11 10:26:12;;;;;;;3.20;1.35;;;;;;;;;;4958671;28;20442;-75
2022/07/11 10:28:48;;;;;;;3.45;1.30;;;;;;;;;;4972929;28;20034;-71
2022/07/11 10:31:20;;;;;;;2.65;1.55;;;;;;;;;;4972509;28;20117;-77
2022/07/11 10:34:07;;;;;;;2.58;1.38;;;;;;;;;;4971552;28;20077;-77
2022/07/11 10:36:39;;;;;;;2.75;1.50;;;;;;;;;;4973172;28;20037;-75
2022/07/11 10:39:29;;;;;;;2.53;1.38;;;;;;;;;;4972355;28;20042;-74
2022/07/11 10:42:00;;;;;;;2.20;1.50;;;;;;;;;;4981010;28;20035;-76
2022/07/11 10:44:29;;;;;;;1.60;1.38;;;;;;;;;;4974683;28;20466;-74
2022/07/11 10:46:54;;;;;;;3.25;2.33;;;;;;;;;;4974001;28;20034;-74
2022/07/11 10:49:37;;;;;;;5.00;1.90;;;;;;;;;;4973359;28;20166;-73
2022/07/11 10:52:08;;;;;;;3.42;1.35;;;;;;;;;;4961309;28;20083;-73
2022/07/11 10:54:42;;;;;;;1.42;1.27;;;;;;;;;;4953349;29;20039;-78
2022/07/11 10:57:21;;;;;;;3.42;1.60;;;;;;;;;;4953893;29;20050;-73
2022/07/11 10:59:59;;;;;;;2.78;1.45;;;;;;;;;;4971781;28;20516;-72
2022/07/11 11:02:29;;;;;;;1.77;1.10;;;;;;;;;;4972876;28;20043;-73
2022/07/11 11:05:00;;;;;;;4.88;1.50;;;;;;;;;;4971903;28;20105;-73
2022/07/11 11:07:34;;;;;;;2.25;1.33;;;;;;;;;;4973071;28;20134;-73
2022/07/11 11:10:05;;;;;;;2.10;1.50;;;;;;;;;;4972844;28;20054;-72
2022/07/11 11:13:08;;;;;;;5.10;1.83;;;;;;;;;;4973287;28;20038;-71
2022/07/11 11:15:51;;;;;;;1.90;1.30;;;;;;;;;;4967788;28;20058;-73
2022/07/11 11:18:25;;;;;;;2.13;1.23;;;;;;;;;;4969932;28;20035;-71
2022/07/11 11:21:02;;;;;;;2.60;1.63;;;;;;;;;;4972921;28;20105;-72
2022/07/11 11:24:01;;;;;;;2.03;1.30;;;;;;;;;;4972386;28;20062;-69
2022/07/11 11:27:06;;;;;;;1.63;1.40;;;;;;;;;;4968500;28;20031;-72
2022/07/11 11:29:32;;;;;;;3.25;1.40;;;;;;;;;;4933146;29;20040;-70
2022/07/11 11:31:59;;;;;;;2.15;1.40;;;;;;;;;;4950017;29;20513;-72
2022/07/11 11:34:27;;;;;;;2.92;1.27;;;;;;;;;;4961599;28;20098;-72
2022/07/11 11:37:01;;;;;;;4.03;2.33;;;;;;;;;;4971883;28;20097;-74
2022/07/11 11:39:31;;;;;;;2.28;1.65;;;;;;;;;;4961646;28;20123;-71
2022/07/11 11:42:23;;;;;;;1.77;1.40;;;;;;;;;;4962513;28;20394;-74
2022/07/11 11:45:01;;;;;;;4.88;1.88;;;;;;;;;;4956909;28;20042;-71
2022/07/11 11:47:31;;;;;;;2.53;1.60;;;;;;;;;;4957300;28;20445;-73
2022/07/11 11:49:57;;;;;;;4.70;1.63;;;;;;;;;;4959901;28;20553;-71
2022/07/11 11:52:24;;;;;;;3.25;1.80;;;;;;;;;;4974343;28;20037;-71
2022/07/11 11:54:59;;;;;;;2.30;1.70;;;;;;;;;;4961434;28;20447;-71
2022/07/11 11:57:27;;;;;;;5.82;1.77;;;;;;;;;;4955848;28;20166;-74
2022/07/11 11:59:53;;;;;;;7.10;2.50;;;;;;;;;;4979291;28;20073;-72
2022/07/11 12:02:28;;;;;;;2.10;1.73;;;;;;;;;;4963499;28;20070;-73
2022/07/11 12:04:54;;;;;;;5.65;1.70;;;;;;;;;;4969865;28;20076;-71
2022/07/11 12:07:28;;;;;;;4.05;1.80;;;;;;;;;;4973815;28;20098;-73
2022/07/11 12:09:56;;;;;;;2.50;1.67;;;;;;;;;;4974617;28;20045;-73
2022/07/11 12:12:43;;;;;;;3.60;1.80;;;;;;;;;;4974707;28;20448;-72
2022/07/11 12:16:39;;;;;;;2.53;1.90;;;;;;;;;;4964289;28;20035;-73
2022/07/11 12:18:20;;;;;;;4.07;1.90;;;;;;;;;;4955413;29;20043;-71
2022/07/11 12:20:45;;;;;;;1.80;1.60;;;;;;;;;;4966773;28;20508;-71
2022/07/11 12:23:15;;;;;;;4.00;1.77;;;;;;;;;;4973118;28;20043;-72
2022/07/11 12:25:42;;;;;;;4.07;1.80;;;;;;;;;;4968133;28;20039;-72
2022/07/11 12:28:14;;;;;;;4.38;1.77;;;;;;;;;;4967014;28;20389;-71
2022/07/11 12:30:40;;;;;;;5.75;1.80;;;;;;;;;;4963074;28;20130;-71
2022/07/11 12:33:08;;;;;;;2.38;1.42;;;;;;;;;;4970536;28;20101;-73
2022/07/11 12:35:35;;;;;;;2.30;1.50;;;;;;;;;;4977668;28;20042;-72
2022/07/11 12:38:01;;;;;;;2.47;1.52;;;;;;;;;;4973996;28;20081;-72
2022/07/11 12:40:26;;;;;;;2.53;1.70;;;;;;;;;;4973899;28;20035;-72
2022/07/11 12:42:52;;;;;;;5.63;1.40;;;;;;;;;;4973868;28;20019;-71
2022/07/11 12:45:18;;;;;;;2.03;1.40;;;;;;;;;;4958036;28;20370;-72
2022/07/11 12:47:46;;;;;;;2.88;1.70;;;;;;;;;;4974544;28;20025;-70
2022/07/11 12:50:28;;;;;;;3.05;1.58;;;;;;;;;;4974936;28;20047;-72
2022/07/11 12:52:58;;;;;;;1.90;1.40;;;;;;;;;;4973478;28;20058;-74
2022/07/11 12:55:28;;;;;;;4.38;1.50;;;;;;;;;;4974749;28;20042;-72
2022/07/11 12:58:09;;;;;;;4.20;1.48;;;;;;;;;;4973795;28;20073;-74
2022/07/11 13:00:38;;;;;;;3.00;1.77;;;;;;;;;;4971004;28;20068;-72
2022/07/11 13:03:06;;;;;;;2.45;1.65;;;;;;;;;;4973961;28;20051;-71
2022/07/11 13:05:49;;;;;;;2.63;1.30;;;;;;;;;;4974652;28;20035;-71
2022/07/11 13:11:09;;;;;;;2.10;1.55;;;;;;;;;;4972590;28;20039;-70
2022/07/11 13:13:35;;;;;;;1.80;1.40;;;;;;;;;;4974228;28;20035;-70
2022/07/11 13:16:02;;;;;;;2.28;1.45;;;;;;;;;;4973681;28;20034;-72
2022/07/11 13:18:28;;;;;;;2.58;1.55;;;;;;;;;;4954625;28;20458;-71
2022/07/11 13:20:55;;;;;;;1.92;1.50;;;;;;;;;;4953095;28;20039;-68
2022/07/11 13:23:21;;;;;;;4.32;2.00;;;;;;;;;;4955994;28;20042;-70
2022/07/11 13:25:47;;;;;;;6.07;1.58;;;;;;;;;;4973979;28;20031;-70
2022/07/11 13:28:13;;;;;;;6.15;1.45;;;;;;;;;;4974154;28;20378;-70
2022/07/11 13:30:40;;;;;;;1.50;1.30;;;;;;;;;;4972073;28;20107;-71
2022/07/11 13:33:06;;;;;;;6.68;1.60;;;;;;;;;;4973696;28;20043;-72
2022/07/11 13:35:32;;;;;;;2.42;1.42;;;;;;;;;;4973692;28;20466;-72
2022/07/11 13:37:58;;;;;;;4.40;1.70;;;;;;;;;;4971932;28;20031;-72
2022/07/11 13:40:24;;;;;;;2.88;1.60;;;;;;;;;;4972015;28;20035;-71
2022/07/11 13:42:52;;;;;;;3.40;1.70;;;;;;;;;;4973189;28;20023;-72
2022/07/11 13:45:20;;;;;;;3.03;1.65;;;;;;;;;;4972026;28;20086;-70
2022/07/11 13:47:47;;;;;;;5.18;1.67;;;;;;;;;;4973715;28;20023;-71
2022/07/11 13:50:14;;;;;;;2.05;1.50;;;;;;;;;;4971871;28;20041;-72
2022/07/11 13:52:39;;;;;;;1.90;1.40;;;;;;;;;;4972792;28;20027;-72
2022/07/11 13:55:06;;;;;;;4.65;1.52;;;;;;;;;;4971805;28;20532;-71
2022/07/11 13:57:33;;;;;;;3.88;1.48;;;;;;;;;;4971707;28;20122;-73
2022/07/11 13:59:59;;;;;;;1.90;1.50;;;;;;;;;;4972907;28;20379;-73
2022/07/11 14:02:25;;;;;;;2.63;1.50;;;;;;;;;;4971718;28;20038;-73
2022/07/11 14:04:51;;;;;;;3.47;1.58;;;;;;;;;;4971446;28;20069;-71
2022/07/11 14:07:17;;;;;;;1.90;1.50;;;;;;;;;;4972628;28;20054;-77
2022/07/11 14:09:43;;;;;;;2.17;1.40;;;;;;;;;;4972698;28;20035;-71
2022/07/11 14:12:09;;;;;;;5.60;1.65;;;;;;;;;;4962816;28;20031;-73
2022/07/11 14:14:36;;;;;;;2.85;1.50;;;;;;;;;;4964578;28;20050;-75
2022/07/11 14:17:03;;;;;;;3.33;1.35;;;;;;;;;;4992273;28;20023;-74
2022/07/11 14:19:31;;;;;;;2.65;1.67;;;;;;;;;;4992937;28;20033;-74
2022/07/11 14:21:56;;;;;;;1.75;1.20;;;;;;;;;;4991725;28;20054;-73
2022/07/11 14:24:22;;;;;;;2.42;1.30;;;;;;;;;;4985627;28;20109;-73
2022/07/11 14:26:48;;;;;;;4.03;1.48;;;;;;;;;;4970790;28;20424;-73
2022/07/11 14:29:15;;;;;;;8.00;1.50;;;;;;;;;;4975778;28;20042;-73
2022/07/11 14:31:41;;;;;;;2.10;1.48;;;;;;;;;;4972284;28;20114;-72
2022/07/11 14:34:08;;;;;;;4.75;1.42;;;;;;;;;;4972984;28;20050;-72
2022/07/11 14:36:33;;;;;;;5.22;1.33;;;;;;;;;;4972521;28;20089;-73
2022/07/11 14:38:59;;;;;;;2.92;1.60;;;;;;;;;;4972540;28;20473;-72
2022/07/11 14:41:25;;;;;;;4.15;1.50;;;;;;;;;;4971414;28;20529;-72
2022/07/11 14:43:51;;;;;;;2.40;1.50;;;;;;;;;;4964465;28;20074;-71
2022/07/11 14:46:17;;;;;;;2.15;1.30;;;;;;;;;;4953605;29;20043;-70
2022/07/11 14:48:43;;;;;;;2.53;1.20;;;;;;;;;;4953384;28;20034;-70
2022/07/11 14:51:10;;;;;;;2.03;1.40;;;;;;;;;;4963001;28;20033;-72
2022/07/11 14:53:36;;;;;;;2.22;1.58;;;;;;;;;;4964968;28;20121;-71
2022/07/11 14:56:03;;;;;;;3.90;1.23;;;;;;;;;;4972826;28;20205;-71
2022/07/11 14:58:29;;;;;;;6.50;1.17;;;;;;;;;;4972292;28;20089;-70
2022/07/11 15:00:54;;;;;;;1.75;1.20;;;;;;;;;;4983219;28;20042;-70